Elco, Pennsylvania
Current Conditions -  °F | °C
As of 9:53 AM on Saturday 25 Oct 2014 (Local Time) from KAGC Reporting Station
Broken Clouds Broken Clouds  
Wind Chill: 52°   Ceiling: 4200
Heat Index: 52°   Visibility: 10mi
Dew Point: 39°   Wind: 7mph
Humidity: 61%   Direction: 210°SSW
Pressure: 29.95"   Gusts: NA
Location:  40.08°N, 79.87°W
Report Text: KAGC 251353Z AUTO 21006KT 10SM FEW024 FEW033 BKN042 11/04 A2995 RMK AO2 SLP149 T01110039 TSNO
Loading
Personal Weather Stations






























Interactive Weather Map New forecast layout! Learn more

10-Day Weather Forecast

Advertisements
Track Severe Weather on mobile